createdAt,value
2022-07-27T02:08:00.597Z,0.1
2022-07-27T02:10:00.710Z,0.2
2022-07-27T02:11:00.286Z,0.3
2022-07-27T02:13:00.520Z,0.4
2022-07-27T02:14:00.284Z,0.5
2022-07-27T02:16:00.329Z,0.6
2022-07-27T02:17:00.281Z,0.7
2022-07-27T02:18:00.599Z,0.8
2022-07-27T02:19:00.284Z,0.9
2022-07-27T02:20:00.297Z,1.1
2022-07-27T02:21:00.286Z,1.2
2022-07-27T02:22:00.284Z,1.3
2022-07-27T02:23:00.519Z,1.4
2022-07-27T02:24:00.281Z,1.5
2022-07-27T02:26:00.352Z,1.7
2022-07-27T02:27:00.282Z,1.8
2022-07-27T02:28:00.516Z,1.9
2022-07-27T02:29:00.284Z,2.1
2022-07-27T02:30:00.717Z,2.2
2022-07-27T02:31:00.289Z,2.4
2022-07-27T02:32:00.285Z,2.6
2022-07-27T02:33:00.580Z,2.8
2022-07-27T02:34:00.298Z,3.0
2022-07-27T02:35:00.302Z,3.2
2022-07-27T02:36:00.291Z,3.7
2022-07-27T02:37:00.295Z,4.1
2022-07-27T02:38:00.524Z,5.1
2022-07-27T02:39:00.300Z,6.1
2022-07-27T02:40:00.299Z,7.1
2022-07-27T02:41:00.289Z,8.4
2022-07-27T02:42:00.291Z,9.7
2022-07-27T02:43:00.531Z,10.8
2022-07-27T02:44:00.290Z,11.9
2022-07-27T02:45:00.731Z,13.1
2022-07-27T02:46:00.362Z,15.1
2022-07-27T02:47:00.308Z,17.1
2022-07-27T02:48:00.525Z,21.1
2022-07-27T02:49:00.355Z,25.1
2022-07-27T02:50:01.761Z,29.1
2022-07-27T02:51:00.299Z,34.6
2022-07-27T02:52:00.301Z,40.1
2022-07-27T02:53:00.556Z,47.3
2022-07-27T02:54:00.293Z,54.5
2022-07-27T02:55:00.312Z,61.7
2022-07-27T02:56:00.325Z,69.5
2022-07-27T02:57:00.295Z,77.3
2022-07-27T02:58:00.531Z,83.6
2022-07-27T02:59:00.296Z,89.9
2022-07-27T03:00:00.793Z,96.1
2022-07-27T03:01:00.295Z,104.3
2022-07-27T03:02:00.420Z,112.4
2022-07-27T03:03:00.535Z,125.2
2022-07-27T03:04:00.313Z,138.0
2022-07-27T03:05:00.315Z,150.8
2022-07-27T03:06:00.344Z,171.4
2022-07-27T03:07:00.301Z,192.0
2022-07-27T03:08:00.547Z,221.7
2022-07-27T03:09:00.308Z,251.5
2022-07-27T03:10:00.313Z,281.2
2022-07-27T03:11:00.301Z,316.4
2022-07-27T03:12:00.307Z,351.6
2022-07-27T03:13:00.541Z,383.9
2022-07-27T03:14:00.303Z,416.3
2022-07-27T03:15:00.768Z,448.6
2022-07-27T03:16:00.439Z,483.7
2022-07-27T03:17:00.302Z,518.7
2022-07-27T03:18:00.533Z,573.1
2022-07-27T03:19:00.302Z,627.4
2022-07-27T03:20:00.320Z,681.7
2022-07-27T03:21:00.302Z,749.3
2022-07-27T03:22:00.308Z,816.8
2022-07-27T03:23:00.591Z,876.9
2022-07-27T03:24:00.299Z,937.1
2022-07-27T03:25:00.312Z,997.2
2022-07-27T03:26:00.307Z,1073.9
2022-07-27T03:27:00.300Z,1150.5
2022-07-27T03:28:03.946Z,1240.8
2022-07-27T03:29:00.304Z,1331.1
2022-07-27T03:30:00.744Z,1421.3
2022-07-27T03:31:00.360Z,1524.6
2022-07-27T03:32:00.305Z,1627.9
2022-07-27T03:33:00.599Z,1714.3
2022-07-27T03:34:02.018Z,1800.7
2022-07-27T03:35:00.316Z,1887.1
2022-07-27T03:36:00.311Z,1969.5
2022-07-27T03:37:00.309Z,2051.9
2022-07-27T03:38:00.573Z,2141.4
2022-07-27T03:39:04.311Z,2230.9
2022-07-27T03:40:00.826Z,2320.5
2022-07-27T03:41:00.315Z,2439.5
2022-07-27T03:42:00.310Z,2558.6
2022-07-27T03:43:00.599Z,2718.3
2022-07-27T03:44:00.317Z,2877.9
2022-07-27T03:45:00.750Z,3037.6
2022-07-27T03:46:00.366Z,3221.1
2022-07-27T03:47:00.313Z,3404.7
2022-07-27T03:48:00.546Z,3582.6
2022-07-27T03:49:00.409Z,3760.5
2022-07-27T03:50:00.323Z,3938.5
2022-07-27T03:51:00.315Z,4152.8
2022-07-27T03:52:00.315Z,4367.1
2022-07-27T03:53:00.563Z,4614.9
2022-07-27T03:54:00.313Z,4862.7
2022-07-27T03:55:00.746Z,5110.5
2022-07-27T03:56:00.319Z,5318.4
2022-07-27T03:57:00.313Z,5526.3
2022-07-27T03:58:00.576Z,5619.5
2022-07-27T03:59:00.317Z,5712.7
2022-07-27T04:00:00.755Z,5805.9
2022-07-27T04:01:00.368Z,5861.3
2022-07-27T04:02:00.407Z,5916.7
2022-07-27T04:03:00.974Z,6050.1
2022-07-27T04:04:00.312Z,6183.6
2022-07-27T04:05:00.325Z,6317.1
2022-07-27T04:06:00.318Z,6441.1
2022-07-27T04:07:00.340Z,6565.2
2022-07-27T04:08:00.574Z,6637.9
2022-07-27T04:09:07.781Z,6710.5
2022-07-27T04:11:00.324Z,6877.3
2022-07-27T04:12:00.315Z,6971.3
2022-07-27T04:13:00.573Z,7394.5
2022-07-27T04:14:00.316Z,7817.7
2022-07-27T04:15:00.752Z,8240.9
2022-07-27T04:16:00.318Z,8876.5
2022-07-27T04:17:00.419Z,9512.0
2022-07-27T04:18:00.631Z,10257.2
2022-07-27T04:19:00.370Z,11002.4
2022-07-27T04:20:00.338Z,11747.6
2022-07-27T04:21:00.312Z,12520.7
2022-07-27T04:22:00.318Z,13293.9
2022-07-27T04:23:00.937Z,14199.0
2022-07-27T04:24:00.348Z,15104.1
2022-07-27T04:25:00.331Z,16009.3
2022-07-27T04:26:00.323Z,16958.1
2022-07-27T04:27:00.322Z,17907.0
2022-07-27T04:28:00.583Z,18691.3
2022-07-27T04:29:00.325Z,19475.5
2022-07-27T04:30:00.831Z,20259.8
2022-07-27T04:31:00.396Z,21063.4
2022-07-27T04:32:00.322Z,21867.0
2022-07-27T04:33:00.607Z,22561.0
2022-07-27T04:34:00.330Z,23255.0
2022-07-27T04:35:01.440Z,23949.0
2022-07-27T04:36:00.331Z,24454.3
2022-07-27T04:37:00.325Z,24959.7
2022-07-27T04:38:00.560Z,25273.9
2022-07-27T04:39:00.323Z,25588.2
2022-07-27T04:40:00.339Z,25902.5
2022-07-27T04:41:00.327Z,26000.7
2022-07-27T04:42:00.323Z,26098.9
2022-07-27T04:43:00.595Z,26285.0
2022-07-27T04:44:00.337Z,26471.1
2022-07-27T04:45:00.758Z,26657.3
2022-07-27T04:46:00.469Z,26743.4
2022-07-27T04:47:00.334Z,26829.5
2022-07-27T04:48:00.588Z,26853.9
2022-07-27T04:49:00.349Z,26878.2
2022-07-27T04:50:00.347Z,26902.5
2022-07-27T04:51:00.336Z,27099.5
2022-07-27T04:52:00.326Z,27296.5
2022-07-27T04:53:00.579Z,27762.0
2022-07-27T04:54:00.330Z,28227.5
2022-07-27T04:55:00.337Z,28692.9
2022-07-27T04:56:01.356Z,29322.7
2022-07-27T04:57:00.337Z,29952.5
2022-07-27T04:58:00.649Z,30452.2
2022-07-27T04:59:00.334Z,30951.9
2022-07-27T05:00:01.005Z,31451.5
2022-07-27T05:01:00.439Z,32449.3
2022-07-27T05:02:00.357Z,33447.1
2022-07-27T05:03:00.592Z,34212.4
2022-07-27T05:04:00.375Z,34977.7
2022-07-27T05:05:00.349Z,35742.9
2022-07-27T05:06:00.333Z,36294.1
2022-07-27T05:07:00.333Z,36845.3
2022-07-27T05:08:00.583Z,37142.3
2022-07-27T05:09:00.332Z,37439.2
2022-07-27T05:10:00.351Z,37736.1
2022-07-27T05:11:00.338Z,37922.3
2022-07-27T05:12:00.340Z,38108.4
2022-07-27T05:13:00.600Z,38472.4
2022-07-27T05:14:00.335Z,38836.4
2022-07-27T05:15:00.769Z,39200.4
2022-07-27T05:16:00.341Z,39157.7
2022-07-27T05:17:00.437Z,39114.9
2022-07-27T05:18:00.582Z,40091.4
2022-07-27T05:19:00.342Z,41067.9
2022-07-27T05:20:00.840Z,42044.3
2022-07-27T05:21:00.342Z,43176.7
2022-07-27T05:22:00.333Z,44309.0
2022-07-27T05:23:01.996Z,45654.2
2022-07-27T05:24:00.338Z,46999.4
2022-07-27T05:25:00.834Z,48344.6
2022-07-27T05:26:00.335Z,49914.2
2022-07-27T05:27:00.337Z,51483.8
2022-07-27T05:28:00.549Z,52995.5
2022-07-27T05:29:00.360Z,54507.3
2022-07-27T05:30:00.788Z,56019.0
2022-07-27T05:31:00.343Z,56597.8
2022-07-27T05:32:05.455Z,57176.6
2022-07-27T05:33:05.627Z,56605.7
2022-07-27T05:34:00.370Z,56034.7
2022-07-27T05:35:00.832Z,55463.8
2022-07-27T05:36:00.339Z,56158.7
2022-07-27T05:37:00.347Z,56853.7
2022-07-27T05:38:00.556Z,56819.7
2022-07-27T05:39:00.368Z,56785.8
2022-07-27T05:40:00.790Z,56751.9
2022-07-27T05:41:00.344Z,56405.4
2022-07-27T05:42:00.384Z,56058.9
2022-07-27T05:43:00.555Z,55538.3
2022-07-27T05:44:00.404Z,55017.6
2022-07-27T05:45:00.781Z,54496.9
2022-07-27T05:46:00.476Z,53934.3
2022-07-27T05:47:00.346Z,53371.6
2022-07-27T05:48:00.551Z,52734.3
2022-07-27T05:49:00.416Z,52096.9
2022-07-27T05:50:00.789Z,51459.6
2022-07-27T05:51:00.352Z,50574.0
2022-07-27T05:52:00.363Z,49688.4
2022-07-27T05:53:00.552Z,49822.2
2022-07-27T05:54:00.377Z,49956.0
2022-07-27T05:55:00.363Z,50089.8
2022-07-27T05:56:00.344Z,50755.2
2022-07-27T05:57:00.368Z,51420.6
2022-07-27T05:58:00.572Z,52158.2
2022-07-27T05:59:03.744Z,52895.8
2022-07-27T06:00:00.861Z,53633.4
2022-07-27T06:01:00.404Z,55118.3
2022-07-27T06:02:00.343Z,56603.1
2022-07-27T06:03:00.618Z,58505.9
2022-07-27T06:04:00.444Z,60408.6
2022-07-27T06:05:00.364Z,62311.3
2022-07-27T06:06:00.348Z,63196.9
2022-07-27T06:07:00.383Z,64082.5
2022-07-27T06:08:00.882Z,64516.5
2022-07-27T06:09:00.380Z,64950.4
2022-07-27T06:10:00.359Z,65384.3
2022-07-27T06:11:00.354Z,65459.7
2022-07-27T06:12:00.344Z,65535.0
2022-07-27T06:15:00.999Z,65535.0
2022-07-27T06:30:01.199Z,65535.0
2022-07-27T06:33:00.400Z,65533.4
2022-07-27T06:34:00.472Z,65531.8
2022-07-27T06:35:00.626Z,65530.2
2022-07-27T06:45:01.048Z,65530.2
2022-07-27T06:48:00.489Z,65531.8
2022-07-27T06:49:00.461Z,65533.4
2022-07-27T06:50:00.616Z,65535.0
2022-07-27T06:53:00.365Z,65053.0
2022-07-27T06:54:00.374Z,64571.0
2022-07-27T06:55:00.627Z,64089.0
2022-07-27T06:56:00.369Z,64046.3
2022-07-27T06:57:00.364Z,64003.7
2022-07-27T06:58:00.359Z,63883.1
2022-07-27T06:59:00.364Z,63762.5
2022-07-27T07:08:00.704Z,64123.9
2022-07-27T07:09:00.365Z,64605.9
2022-07-27T07:10:00.973Z,65087.9
2022-07-27T07:11:00.399Z,65130.5
2022-07-27T07:12:00.370Z,65173.2
2022-07-27T07:13:00.584Z,65293.8
2022-07-27T07:14:00.369Z,65414.4
2022-07-27T07:15:01.093Z,65535.0
2022-07-27T07:45:01.028Z,65535.0
2022-07-27T08:15:01.133Z,65535.0
2022-07-27T09:00:02.558Z,65535.0
2022-07-27T09:45:03.381Z,65535.0
2022-07-27T12:45:01.519Z,65535.0
2022-07-27T15:30:01.643Z,65535.0
2022-07-27T16:30:01.782Z,65535.0
2022-07-27T16:56:01.275Z,64862.8
2022-07-27T16:57:08.159Z,64190.6
2022-07-27T16:58:00.868Z,63518.4
2022-07-27T16:59:00.871Z,62586.7
2022-07-27T17:01:01.082Z,60674.6
2022-07-27T17:02:00.967Z,59694.3
2022-07-27T17:03:00.900Z,58713.9
2022-07-27T17:04:00.957Z,58478.9
2022-07-27T17:05:00.895Z,58243.8
2022-07-27T17:06:05.558Z,57421.9
2022-07-27T17:07:00.908Z,56599.9
2022-07-27T17:08:00.916Z,55778.0
2022-07-27T17:09:00.886Z,54809.1
2022-07-27T17:10:01.323Z,53840.3
2022-07-27T17:11:02.504Z,53555.5
2022-07-27T17:12:00.876Z,53270.8
2022-07-27T17:13:00.877Z,52986.1
2022-07-27T17:14:00.879Z,53638.9
2022-07-27T17:16:01.194Z,55272.0
2022-07-27T17:17:00.881Z,56252.3
2022-07-27T17:18:00.944Z,57232.7
2022-07-27T17:19:00.902Z,57122.3
2022-07-27T17:20:01.509Z,57011.9
2022-07-27T17:21:01.090Z,57324.1
2022-07-27T17:22:00.911Z,57636.4
2022-07-27T17:23:00.885Z,57948.7
2022-07-27T17:24:00.884Z,57895.7
2022-07-27T17:25:00.888Z,57842.8
2022-07-27T17:26:01.087Z,57780.3
2022-07-27T17:27:00.888Z,57717.7
2022-07-27T17:28:00.879Z,57655.2
2022-07-27T17:29:00.914Z,57341.3
2022-07-27T17:31:01.123Z,56698.5
2022-07-27T17:32:00.887Z,56369.6
2022-07-27T17:33:00.890Z,56040.7
2022-07-27T17:34:00.915Z,56141.8
2022-07-27T17:36:01.129Z,55966.5
2022-07-27T17:37:00.891Z,55690.2
2022-07-27T17:38:06.430Z,55413.9
2022-07-27T17:39:00.914Z,55452.0
2022-07-27T17:40:01.338Z,55490.1
2022-07-27T17:41:01.106Z,55572.0
2022-07-27T17:42:00.891Z,55653.9
2022-07-27T17:43:00.890Z,55735.7
2022-07-27T17:44:00.913Z,55462.2
2022-07-27T17:46:01.431Z,54637.7
2022-07-27T17:47:01.142Z,54086.8
2022-07-27T17:48:00.956Z,53535.9
2022-07-27T17:49:00.935Z,52455.5
2022-07-27T17:50:01.789Z,51375.2
2022-07-27T17:51:01.132Z,51057.6
2022-07-27T17:52:01.037Z,50740.0
2022-07-27T17:53:00.902Z,50422.4
2022-07-27T17:54:00.963Z,50013.1
2022-07-27T17:55:05.913Z,49603.7
2022-07-27T17:56:01.311Z,48658.3
2022-07-27T17:57:00.902Z,47712.8
2022-07-27T17:58:00.898Z,46767.3
2022-07-27T17:59:14.222Z,45866.8
2022-07-27T18:01:01.323Z,43815.8
2022-07-27T18:02:00.961Z,42665.3
2022-07-27T18:03:00.901Z,41514.9
2022-07-27T18:04:02.119Z,40269.1
2022-07-27T18:05:01.358Z,39023.3
2022-07-27T18:06:03.261Z,37529.4
2022-07-27T18:07:00.899Z,36035.5
2022-07-27T18:08:00.905Z,34541.7
2022-07-27T18:09:00.898Z,33521.7
2022-07-27T18:10:02.369Z,32501.7
2022-07-27T18:11:01.107Z,32363.0
2022-07-27T18:12:06.082Z,32224.3
2022-07-27T18:13:00.901Z,32085.7
2022-07-27T18:14:00.906Z,31429.9
2022-07-27T18:16:01.290Z,30298.0
2022-07-27T18:17:00.897Z,29821.9
2022-07-27T18:18:00.905Z,29345.9
2022-07-27T18:19:00.900Z,29161.3
2022-07-27T18:21:01.120Z,28654.1
2022-07-27T18:22:00.901Z,28331.6
2022-07-27T18:23:00.933Z,28009.1
2022-07-27T18:24:00.899Z,27388.5
2022-07-27T18:25:01.408Z,26767.9
2022-07-27T18:26:01.173Z,25819.0
2022-07-27T18:27:00.901Z,24870.1
2022-07-27T18:28:00.905Z,23921.3
2022-07-27T18:29:00.934Z,23539.6
2022-07-27T18:31:01.187Z,22797.9
2022-07-27T18:32:00.908Z,22437.9
2022-07-27T18:33:00.940Z,22077.9
2022-07-27T18:34:00.942Z,21841.3
2022-07-27T18:36:01.154Z,21518.4
2022-07-27T18:37:00.904Z,21432.2
2022-07-27T18:38:00.908Z,21346.0
2022-07-27T18:39:00.928Z,21231.5
2022-07-27T18:41:01.128Z,20838.6
2022-07-27T18:42:01.066Z,20560.1
2022-07-27T18:43:00.908Z,20281.7
2022-07-27T18:44:00.924Z,19765.0
2022-07-27T18:46:01.269Z,18683.9
2022-07-27T18:47:00.913Z,18119.4
2022-07-27T18:48:00.982Z,17554.9
2022-07-27T18:49:05.550Z,17027.3
2022-07-27T18:50:00.922Z,16499.6
2022-07-27T18:51:01.459Z,15857.7
2022-07-27T18:52:00.974Z,15215.9
2022-07-27T18:53:00.910Z,14574.0
2022-07-27T18:54:00.930Z,13996.4
2022-07-27T18:55:00.999Z,13418.8
2022-07-27T18:56:01.088Z,12879.3
2022-07-27T18:57:00.930Z,12339.7
2022-07-27T18:58:00.980Z,11800.2
2022-07-27T18:59:00.969Z,11245.3
2022-07-27T19:01:17.030Z,10162.1
2022-07-27T19:02:02.399Z,9633.8
2022-07-27T19:03:01.157Z,9105.5
2022-07-27T19:04:01.440Z,8608.5
2022-07-27T19:05:00.931Z,8111.6
2022-07-27T19:06:00.934Z,7738.9
2022-07-27T19:07:01.130Z,7366.3
2022-07-27T19:08:00.917Z,6993.6
2022-07-27T19:09:00.930Z,6655.1
2022-07-27T19:11:00.925Z,6004.4
2022-07-27T19:12:05.944Z,5692.1
2022-07-27T19:13:01.039Z,5379.9
2022-07-27T19:14:01.071Z,5155.9
2022-07-27T19:16:00.919Z,4745.3
2022-07-27T19:17:01.156Z,4558.5
2022-07-27T19:18:00.925Z,4371.8
2022-07-27T19:19:00.924Z,4231.9
2022-07-27T19:20:00.938Z,4091.9
2022-07-27T19:21:00.945Z,3936.7
2022-07-27T19:22:01.131Z,3781.4
2022-07-27T19:23:00.983Z,3626.1
2022-07-27T19:24:00.921Z,3501.5
2022-07-27T19:25:01.008Z,3376.9
2022-07-27T19:26:02.032Z,3261.9
2022-07-27T19:27:01.143Z,3146.8
2022-07-27T19:28:00.948Z,3031.7
2022-07-27T19:29:00.922Z,2890.5
2022-07-27T19:31:01.015Z,2642.9
2022-07-27T19:32:01.147Z,2536.4
2022-07-27T19:33:00.930Z,2429.9
2022-07-27T19:34:00.949Z,2320.8
2022-07-27T19:35:00.941Z,2211.7
2022-07-27T19:36:00.934Z,2104.9
2022-07-27T19:37:01.192Z,1998.2
2022-07-27T19:38:00.936Z,1891.5
2022-07-27T19:39:04.181Z,1777.7
2022-07-27T19:40:45.234Z,1663.9
2022-07-27T19:41:00.907Z,1563.7
2022-07-27T19:42:01.138Z,1463.6
2022-07-27T19:43:00.995Z,1363.5
2022-07-27T19:44:01.091Z,1278.7
2022-07-27T19:46:00.991Z,1113.6
2022-07-27T19:47:01.152Z,1033.3
2022-07-27T19:48:00.983Z,953.1
2022-07-27T19:49:00.983Z,879.5
2022-07-27T19:51:06.473Z,749.7
2022-07-27T19:52:01.159Z,687.5
2022-07-27T19:53:00.938Z,625.2
2022-07-27T19:54:00.935Z,577.1
2022-07-27T19:55:00.952Z,529.1
2022-07-27T19:56:01.008Z,494.5
2022-07-27T19:57:01.143Z,454.9
2022-07-27T19:58:00.933Z,415.3
2022-07-27T19:59:00.942Z,382.1
2022-07-27T20:01:01.003Z,322.3
2022-07-27T20:02:01.333Z,292.8
2022-07-27T20:03:01.027Z,263.3
2022-07-27T20:04:00.942Z,238.3
2022-07-27T20:05:00.949Z,213.2
2022-07-27T20:06:01.284Z,188.1
2022-07-27T20:07:01.146Z,167.9
2022-07-27T20:08:00.951Z,147.6
2022-07-27T20:09:00.946Z,132.1
2022-07-27T20:10:00.965Z,116.5
2022-07-27T20:11:01.072Z,101.0
2022-07-27T20:12:01.190Z,89.9
2022-07-27T20:13:00.942Z,78.7
2022-07-27T20:14:00.982Z,70.6
2022-07-27T20:16:00.948Z,54.3
2022-07-27T20:17:01.225Z,48.7
2022-07-27T20:18:00.945Z,43.1
2022-07-27T20:19:00.944Z,39.3
2022-07-27T20:20:01.501Z,35.4
2022-07-27T20:21:00.943Z,31.5
2022-07-27T20:22:01.154Z,28.5
2022-07-27T20:23:01.073Z,25.5
2022-07-27T20:24:00.944Z,23.2
2022-07-27T20:25:00.949Z,20.9
2022-07-27T20:26:00.983Z,18.5
2022-07-27T20:27:01.156Z,16.7
2022-07-27T20:28:00.942Z,14.8
2022-07-27T20:29:01.025Z,13.4
2022-07-27T20:30:01.528Z,12.0
2022-07-27T20:31:01.073Z,10.6
2022-07-27T20:32:01.159Z,9.5
2022-07-27T20:33:00.946Z,8.3
2022-07-27T20:34:00.987Z,7.5
2022-07-27T20:35:00.954Z,6.6
2022-07-27T20:36:00.946Z,5.7
2022-07-27T20:37:01.201Z,5.1
2022-07-27T20:38:00.951Z,4.5
2022-07-27T20:39:00.945Z,4.1
2022-07-27T20:41:00.944Z,3.1
2022-07-27T20:42:01.162Z,2.9
2022-07-27T20:43:01.025Z,2.6
2022-07-27T20:44:01.028Z,2.3
2022-07-27T20:46:01.040Z,1.8
2022-07-27T20:47:01.151Z,1.7
2022-07-27T20:48:00.951Z,1.5
2022-07-27T20:49:01.003Z,1.4
2022-07-27T20:51:00.946Z,1.1
2022-07-27T20:52:01.180Z,1.0
2022-07-27T20:53:00.960Z,0.9
2022-07-27T20:54:00.946Z,0.8
2022-07-27T20:55:00.956Z,0.7
2022-07-27T20:57:01.419Z,0.6
2022-07-27T20:58:00.958Z,0.5
2022-07-27T21:01:01.008Z,0.3
2022-07-27T21:03:15.964Z,0.2
2022-07-27T21:04:01.211Z,0.1
